sensor_id;sensor_type;location;lat;lon;timestamp;P1;durP1;ratioP1;P2;durP2;ratioP2
51194;SDS011;37259;49.972;19.850;2024-02-21T00:00:24;8.4;;;4.7;;
51194;SDS011;37259;49.972;19.850;2024-02-21T00:01:24;8.4;;;4.7;;
51194;SDS011;37259;49.972;19.850;2024-02-21T00:02:24;10.9;;;5.2;;
51194;SDS011;37259;49.972;19.850;2024-02-21T00:03:24;10.9;;;5.2;;
51194;SDS011;37259;49.972;19.850;2024-02-21T00:04:24;10.9;;;5.2;;
51194;SDS011;37259;49.972;19.850;2024-02-21T00:05:24;10.9;;;5.2;;
51194;SDS011;37259;49.972;19.850;2024-02-21T00:06:23;10.9;;;5.2;;
51194;SDS011;37259;49.972;19.850;2024-02-21T00:07:24;10.9;;;5.2;;
51194;SDS011;37259;49.972;19.850;2024-02-21T00:08:24;10.9;;;5.2;;
51194;SDS011;37259;49.972;19.850;2024-02-21T00:09:24;10.9;;;5.2;;
51194;SDS011;37259;49.972;19.850;2024-02-21T00:10:24;10.9;;;5.2;;
51194;SDS011;37259;49.972;19.850;2024-02-21T00:11:24;10.9;;;5.2;;
51194;SDS011;37259;49.972;19.850;2024-02-21T00:12:26;10.9;;;5.2;;
51194;SDS011;37259;49.972;19.850;2024-02-21T00:13:24;10.9;;;5.2;;
51194;SDS011;37259;49.972;19.850;2024-02-21T00:14:24;10.9;;;5.2;;
51194;SDS011;37259;49.972;19.850;2024-02-21T00:15:24;10.9;;;5.2;;
51194;SDS011;37259;49.972;19.850;2024-02-21T00:16:24;10.9;;;5.2;;
51194;SDS011;37259;49.972;19.850;2024-02-21T00:17:24;10.9;;;5.2;;
51194;SDS011;37259;49.972;19.850;2024-02-21T00:18:24;10.9;;;5.2;;
51194;SDS011;37259;49.972;19.850;2024-02-21T00:19:24;10.9;;;5.2;;
51194;SDS011;37259;49.972;19.850;2024-02-21T00:20:24;10.9;;;5.2;;
51194;SDS011;37259;49.972;19.850;2024-02-21T00:21:24;10.9;;;5.2;;
51194;SDS011;37259;49.972;19.850;2024-02-21T00:22:24;10.9;;;5.2;;
51194;SDS011;37259;49.972;19.850;2024-02-21T00:23:24;10.9;;;5.2;;
51194;SDS011;37259;49.972;19.850;2024-02-21T00:24:24;10.9;;;5.2;;
51194;SDS011;37259;49.972;19.850;2024-02-21T00:25:24;10.9;;;5.2;;
51194;SDS011;37259;49.972;19.850;2024-02-21T00:26:24;10.9;;;5.2;;
51194;SDS011;37259;49.972;19.850;2024-02-21T00:27:24;10.9;;;5.2;;
51194;SDS011;37259;49.972;19.850;2024-02-21T00:28:24;10.9;;;5.2;;
51194;SDS011;37259;49.972;19.850;2024-02-21T00:29:24;10.9;;;5.2;;
51194;SDS011;37259;49.972;19.850;2024-02-21T00:30:24;10.9;;;5.2;;
51194;SDS011;37259;49.972;19.850;2024-02-21T00:31:24;10.9;;;5.2;;
51194;SDS011;37259;49.972;19.850;2024-02-21T00:32:24;11.8;;;6.8;;
51194;SDS011;37259;49.972;19.850;2024-02-21T00:33:24;11.8;;;6.8;;
51194;SDS011;37259;49.972;19.850;2024-02-21T00:34:24;11.8;;;6.8;;
51194;SDS011;37259;49.972;19.850;2024-02-21T00:35:24;11.8;;;6.8;;
51194;SDS011;37259;49.972;19.850;2024-02-21T00:36:24;11.8;;;6.8;;
51194;SDS011;37259;49.972;19.850;2024-02-21T00:37:24;11.8;;;6.8;;
51194;SDS011;37259;49.972;19.850;2024-02-21T00:38:24;11.8;;;6.8;;
51194;SDS011;37259;49.972;19.850;2024-02-21T00:39:24;11.8;;;6.8;;
51194;SDS011;37259;49.972;19.850;2024-02-21T00:40:24;11.8;;;6.8;;
51194;SDS011;37259;49.972;19.850;2024-02-21T00:41:24;11.8;;;6.8;;
51194;SDS011;37259;49.972;19.850;2024-02-21T00:42:24;11.8;;;6.8;;
51194;SDS011;37259;49.972;19.850;2024-02-21T00:43:24;11.8;;;6.8;;
51194;SDS011;37259;49.972;19.850;2024-02-21T00:44:24;11.8;;;6.8;;
51194;SDS011;37259;49.972;19.850;2024-02-21T00:45:24;11.8;;;6.8;;
51194;SDS011;37259;49.972;19.850;2024-02-21T00:46:24;11.8;;;6.8;;
51194;SDS011;37259;49.972;19.850;2024-02-21T00:47:24;11.8;;;6.8;;
51194;SDS011;37259;49.972;19.850;2024-02-21T00:48:24;11.8;;;6.8;;
51194;SDS011;37259;49.972;19.850;2024-02-21T00:49:24;11.8;;;6.8;;
51194;SDS011;37259;49.972;19.850;2024-02-21T00:50:24;11.8;;;6.8;;
51194;SDS011;37259;49.972;19.850;2024-02-21T00:51:24;11.8;;;6.8;;
51194;SDS011;37259;49.972;19.850;2024-02-21T00:52:24;11.8;;;6.8;;
51194;SDS011;37259;49.972;19.850;2024-02-21T00:53:24;11.8;;;6.8;;
51194;SDS011;37259;49.972;19.850;2024-02-21T00:54:24;11.8;;;6.8;;
51194;SDS011;37259;49.972;19.850;2024-02-21T00:55:24;11.8;;;6.8;;
51194;SDS011;37259;49.972;19.850;2024-02-21T00:56:24;11.8;;;6.8;;
51194;SDS011;37259;49.972;19.850;2024-02-21T00:57:24;11.8;;;6.8;;
51194;SDS011;37259;49.972;19.850;2024-02-21T00:58:24;11.8;;;6.8;;
51194;SDS011;37259;49.972;19.850;2024-02-21T00:59:24;11.8;;;6.8;;
51194;SDS011;37259;49.972;19.850;2024-02-21T01:00:24;11.8;;;6.8;;
51194;SDS011;37259;49.972;19.850;2024-02-21T01:01:24;11.8;;;6.8;;
51194;SDS011;37259;49.972;19.850;2024-02-21T01:02:24;13.2;;;6.7;;
51194;SDS011;37259;49.972;19.850;2024-02-21T01:03:24;13.2;;;6.7;;
51194;SDS011;37259;49.972;19.850;2024-02-21T01:04:24;13.2;;;6.7;;
51194;SDS011;37259;49.972;19.850;2024-02-21T01:05:24;13.2;;;6.7;;
51194;SDS011;37259;49.972;19.850;2024-02-21T01:06:24;13.2;;;6.7;;
51194;SDS011;37259;49.972;19.850;2024-02-21T01:07:24;13.2;;;6.7;;
51194;SDS011;37259;49.972;19.850;2024-02-21T01:08:24;13.2;;;6.7;;
51194;SDS011;37259;49.972;19.850;2024-02-21T01:09:24;13.2;;;6.7;;
51194;SDS011;37259;49.972;19.850;2024-02-21T01:10:24;13.2;;;6.7;;
51194;SDS011;37259;49.972;19.850;2024-02-21T01:11:24;13.2;;;6.7;;
51194;SDS011;37259;49.972;19.850;2024-02-21T01:12:24;13.2;;;6.7;;
51194;SDS011;37259;49.972;19.850;2024-02-21T01:13:24;13.2;;;6.7;;
51194;SDS011;37259;49.972;19.850;2024-02-21T01:14:24;13.2;;;6.7;;
51194;SDS011;37259;49.972;19.850;2024-02-21T01:15:24;13.2;;;6.7;;
51194;SDS011;37259;49.972;19.850;2024-02-21T01:16:24;13.2;;;6.7;;
51194;SDS011;37259;49.972;19.850;2024-02-21T01:17:24;13.2;;;6.7;;
51194;SDS011;37259;49.972;19.850;2024-02-21T01:18:24;13.2;;;6.7;;
51194;SDS011;37259;49.972;19.850;2024-02-21T01:19:24;13.2;;;6.7;;
51194;SDS011;37259;49.972;19.850;2024-02-21T01:20:24;13.2;;;6.7;;
51194;SDS011;37259;49.972;19.850;2024-02-21T01:21:24;13.2;;;6.7;;
51194;SDS011;37259;49.972;19.850;2024-02-21T01:22:24;13.2;;;6.7;;
51194;SDS011;37259;49.972;19.850;2024-02-21T01:23:24;13.2;;;6.7;;
51194;SDS011;37259;49.972;19.850;2024-02-21T01:24:24;13.2;;;6.7;;
51194;SDS011;37259;49.972;19.850;2024-02-21T01:25:24;13.2;;;6.7;;
51194;SDS011;37259;49.972;19.850;2024-02-21T01:26:24;13.2;;;6.7;;
51194;SDS011;37259;49.972;19.850;2024-02-21T01:27:24;13.2;;;6.7;;
51194;SDS011;37259;49.972;19.850;2024-02-21T01:28:24;13.2;;;6.7;;
51194;SDS011;37259;49.972;19.850;2024-02-21T01:29:24;13.2;;;6.7;;
51194;SDS011;37259;49.972;19.850;2024-02-21T01:30:24;13.2;;;6.7;;
51194;SDS011;37259;49.972;19.850;2024-02-21T01:31:24;13.2;;;6.7;;
51194;SDS011;37259;49.972;19.850;2024-02-21T01:32:24;9;;;4.3;;
51194;SDS011;37259;49.972;19.850;2024-02-21T01:33:24;9;;;4.3;;
51194;SDS011;37259;49.972;19.850;2024-02-21T01:34:24;9;;;4.3;;
51194;SDS011;37259;49.972;19.850;2024-02-21T01:35:24;9;;;4.3;;
51194;SDS011;37259;49.972;19.850;2024-02-21T01:36:24;9;;;4.3;;
51194;SDS011;37259;49.972;19.850;2024-02-21T01:37:24;9;;;4.3;;
51194;SDS011;37259;49.972;19.850;2024-02-21T01:38:24;9;;;4.3;;
51194;SDS011;37259;49.972;19.850;2024-02-21T01:39:24;9;;;4.3;;
51194;SDS011;37259;49.972;19.850;2024-02-21T01:40:24;9;;;4.3;;
51194;SDS011;37259;49.972;19.850;2024-02-21T01:41:24;9;;;4.3;;
51194;SDS011;37259;49.972;19.850;2024-02-21T01:42:24;9;;;4.3;;
51194;SDS011;37259;49.972;19.850;2024-02-21T01:43:24;9;;;4.3;;
51194;SDS011;37259;49.972;19.850;2024-02-21T01:44:24;9;;;4.3;;
51194;SDS011;37259;49.972;19.850;2024-02-21T01:45:24;9;;;4.3;;
51194;SDS011;37259;49.972;19.850;2024-02-21T01:46:24;9;;;4.3;;
51194;SDS011;37259;49.972;19.850;2024-02-21T01:47:24;9;;;4.3;;
51194;SDS011;37259;49.972;19.850;2024-02-21T01:48:24;9;;;4.3;;
51194;SDS011;37259;49.972;19.850;2024-02-21T01:49:24;9;;;4.3;;
51194;SDS011;37259;49.972;19.850;2024-02-21T01:50:24;9;;;4.3;;
51194;SDS011;37259;49.972;19.850;2024-02-21T01:51:24;9;;;4.3;;
51194;SDS011;37259;49.972;19.850;2024-02-21T01:52:24;9;;;4.3;;
51194;SDS011;37259;49.972;19.850;2024-02-21T01:53:25;9;;;4.3;;
51194;SDS011;37259;49.972;19.850;2024-02-21T01:54:24;9;;;4.3;;
51194;SDS011;37259;49.972;19.850;2024-02-21T01:55:24;9;;;4.3;;
51194;SDS011;37259;49.972;19.850;2024-02-21T01:56:24;9;;;4.3;;
51194;SDS011;37259;49.972;19.850;2024-02-21T01:57:24;9;;;4.3;;
51194;SDS011;37259;49.972;19.850;2024-02-21T01:58:24;9;;;4.3;;
51194;SDS011;37259;49.972;19.850;2024-02-21T01:59:24;9;;;4.3;;
51194;SDS011;37259;49.972;19.850;2024-02-21T02:00:24;9;;;4.3;;
51194;SDS011;37259;49.972;19.850;2024-02-21T02:01:24;9;;;4.3;;
51194;SDS011;37259;49.972;19.850;2024-02-21T02:02:24;12.6;;;4.5;;
51194;SDS011;37259;49.972;19.850;2024-02-21T02:03:24;12.6;;;4.5;;
51194;SDS011;37259;49.972;19.850;2024-02-21T02:04:24;12.6;;;4.5;;
51194;SDS011;37259;49.972;19.850;2024-02-21T02:05:24;12.6;;;4.5;;
51194;SDS011;37259;49.972;19.850;2024-02-21T02:06:24;12.6;;;4.5;;
51194;SDS011;37259;49.972;19.850;2024-02-21T02:07:24;12.6;;;4.5;;
51194;SDS011;37259;49.972;19.850;2024-02-21T02:08:24;12.6;;;4.5;;
51194;SDS011;37259;49.972;19.850;2024-02-21T02:09:24;12.6;;;4.5;;
51194;SDS011;37259;49.972;19.850;2024-02-21T02:10:24;12.6;;;4.5;;
51194;SDS011;37259;49.972;19.850;2024-02-21T02:11:24;12.6;;;4.5;;
51194;SDS011;37259;49.972;19.850;2024-02-21T02:12:24;12.6;;;4.5;;
51194;SDS011;37259;49.972;19.850;2024-02-21T02:13:24;12.6;;;4.5;;
51194;SDS011;37259;49.972;19.850;2024-02-21T02:14:24;12.6;;;4.5;;
51194;SDS011;37259;49.972;19.850;2024-02-21T02:15:24;12.6;;;4.5;;
51194;SDS011;37259;49.972;19.850;2024-02-21T02:16:24;12.6;;;4.5;;
51194;SDS011;37259;49.972;19.850;2024-02-21T02:17:24;12.6;;;4.5;;
51194;SDS011;37259;49.972;19.850;2024-02-21T02:18:24;12.6;;;4.5;;
51194;SDS011;37259;49.972;19.850;2024-02-21T02:19:24;12.6;;;4.5;;
51194;SDS011;37259;49.972;19.850;2024-02-21T02:20:24;12.6;;;4.5;;
51194;SDS011;37259;49.972;19.850;2024-02-21T02:21:26;12.6;;;4.5;;
51194;SDS011;37259;49.972;19.850;2024-02-21T02:22:27;12.6;;;4.5;;
51194;SDS011;37259;49.972;19.850;2024-02-21T02:23:24;12.6;;;4.5;;
51194;SDS011;37259;49.972;19.850;2024-02-21T02:24:24;12.6;;;4.5;;
51194;SDS011;37259;49.972;19.850;2024-02-21T02:25:24;12.6;;;4.5;;
51194;SDS011;37259;49.972;19.850;2024-02-21T02:26:24;12.6;;;4.5;;
51194;SDS011;37259;49.972;19.850;2024-02-21T02:27:24;12.6;;;4.5;;
51194;SDS011;37259;49.972;19.850;2024-02-21T02:28:24;12.6;;;4.5;;
51194;SDS011;37259;49.972;19.850;2024-02-21T02:29:24;12.6;;;4.5;;
51194;SDS011;37259;49.972;19.850;2024-02-21T02:30:24;12.6;;;4.5;;
51194;SDS011;37259;49.972;19.850;2024-02-21T02:31:24;12.6;;;4.5;;
51194;SDS011;37259;49.972;19.850;2024-02-21T02:32:24;11.9;;;5.1;;
51194;SDS011;37259;49.972;19.850;2024-02-21T02:33:24;11.9;;;5.1;;
51194;SDS011;37259;49.972;19.850;2024-02-21T02:34:24;11.9;;;5.1;;
51194;SDS011;37259;49.972;19.850;2024-02-21T02:35:24;11.9;;;5.1;;
51194;SDS011;37259;49.972;19.850;2024-02-21T02:36:24;11.9;;;5.1;;
51194;SDS011;37259;49.972;19.850;2024-02-21T02:37:24;11.9;;;5.1;;
51194;SDS011;37259;49.972;19.850;2024-02-21T02:38:24;11.9;;;5.1;;
51194;SDS011;37259;49.972;19.850;2024-02-21T02:39:24;11.9;;;5.1;;
51194;SDS011;37259;49.972;19.850;2024-02-21T02:40:24;11.9;;;5.1;;
51194;SDS011;37259;49.972;19.850;2024-02-21T02:41:24;11.9;;;5.1;;
51194;SDS011;37259;49.972;19.850;2024-02-21T02:42:24;11.9;;;5.1;;
51194;SDS011;37259;49.972;19.850;2024-02-21T02:43:24;11.9;;;5.1;;
51194;SDS011;37259;49.972;19.850;2024-02-21T02:44:24;11.9;;;5.1;;
51194;SDS011;37259;49.972;19.850;2024-02-21T02:45:24;11.9;;;5.1;;
51194;SDS011;37259;49.972;19.850;2024-02-21T02:46:24;11.9;;;5.1;;
51194;SDS011;37259;49.972;19.850;2024-02-21T02:47:24;11.9;;;5.1;;
51194;SDS011;37259;49.972;19.850;2024-02-21T02:48:24;11.9;;;5.1;;
51194;SDS011;37259;49.972;19.850;2024-02-21T02:49:24;11.9;;;5.1;;
51194;SDS011;37259;49.972;19.850;2024-02-21T02:50:24;11.9;;;5.1;;
51194;SDS011;37259;49.972;19.850;2024-02-21T02:51:24;11.9;;;5.1;;
51194;SDS011;37259;49.972;19.850;2024-02-21T02:52:24;11.9;;;5.1;;
51194;SDS011;37259;49.972;19.850;2024-02-21T02:53:24;11.9;;;5.1;;
51194;SDS011;37259;49.972;19.850;2024-02-21T02:54:24;11.9;;;5.1;;
51194;SDS011;37259;49.972;19.850;2024-02-21T02:55:24;11.9;;;5.1;;
51194;SDS011;37259;49.972;19.850;2024-02-21T02:56:24;11.9;;;5.1;;
51194;SDS011;37259;49.972;19.850;2024-02-21T02:57:24;11.9;;;5.1;;
51194;SDS011;37259;49.972;19.850;2024-02-21T02:58:24;11.9;;;5.1;;
51194;SDS011;37259;49.972;19.850;2024-02-21T02:59:24;11.9;;;5.1;;
51194;SDS011;37259;49.972;19.850;2024-02-21T03:00:24;11.9;;;5.1;;
51194;SDS011;37259;49.972;19.850;2024-02-21T03:01:24;11.9;;;5.1;;
51194;SDS011;37259;49.972;19.850;2024-02-21T03:02:24;7.6;;;4.2;;
51194;SDS011;37259;49.972;19.850;2024-02-21T03:03:24;7.6;;;4.2;;
51194;SDS011;37259;49.972;19.850;2024-02-21T03:04:24;7.6;;;4.2;;
51194;SDS011;37259;49.972;19.850;2024-02-21T03:05:24;7.6;;;4.2;;
51194;SDS011;37259;49.972;19.850;2024-02-21T03:06:24;7.6;;;4.2;;
51194;SDS011;37259;49.972;19.850;2024-02-21T03:07:24;7.6;;;4.2;;
51194;SDS011;37259;49.972;19.850;2024-02-21T03:08:24;7.6;;;4.2;;
51194;SDS011;37259;49.972;19.850;2024-02-21T03:09:25;7.6;;;4.2;;
51194;SDS011;37259;49.972;19.850;2024-02-21T03:10:24;7.6;;;4.2;;
51194;SDS011;37259;49.972;19.850;2024-02-21T03:11:24;7.6;;;4.2;;
51194;SDS011;37259;49.972;19.850;2024-02-21T03:12:24;7.6;;;4.2;;
51194;SDS011;37259;49.972;19.850;2024-02-21T03:13:24;7.6;;;4.2;;
51194;SDS011;37259;49.972;19.850;2024-02-21T03:14:24;7.6;;;4.2;;
51194;SDS011;37259;49.972;19.850;2024-02-21T03:15:24;7.6;;;4.2;;
51194;SDS011;37259;49.972;19.850;2024-02-21T03:16:24;7.6;;;4.2;;
51194;SDS011;37259;49.972;19.850;2024-02-21T03:17:24;7.6;;;4.2;;
51194;SDS011;37259;49.972;19.850;2024-02-21T03:18:24;7.6;;;4.2;;
51194;SDS011;37259;49.972;19.850;2024-02-21T03:19:24;7.6;;;4.2;;
51194;SDS011;37259;49.972;19.850;2024-02-21T03:20:24;7.6;;;4.2;;
51194;SDS011;37259;49.972;19.850;2024-02-21T03:21:24;7.6;;;4.2;;
51194;SDS011;37259;49.972;19.850;2024-02-21T03:22:24;7.6;;;4.2;;
51194;SDS011;37259;49.972;19.850;2024-02-21T03:23:24;7.6;;;4.2;;
51194;SDS011;37259;49.972;19.850;2024-02-21T03:24:24;7.6;;;4.2;;
51194;SDS011;37259;49.972;19.850;2024-02-21T03:25:24;7.6;;;4.2;;
51194;SDS011;37259;49.972;19.850;2024-02-21T03:26:24;7.6;;;4.2;;
51194;SDS011;37259;49.972;19.850;2024-02-21T03:27:24;7.6;;;4.2;;
51194;SDS011;37259;49.972;19.850;2024-02-21T03:28:24;7.6;;;4.2;;
51194;SDS011;37259;49.972;19.850;2024-02-21T03:29:24;7.6;;;4.2;;
51194;SDS011;37259;49.972;19.850;2024-02-21T03:30:24;7.6;;;4.2;;
51194;SDS011;37259;49.972;19.850;2024-02-21T03:31:24;7.8;;;4.1;;
51194;SDS011;37259;49.972;19.850;2024-02-21T03:32:24;7.8;;;4.1;;
51194;SDS011;37259;49.972;19.850;2024-02-21T03:33:24;7.8;;;4.1;;
51194;SDS011;37259;49.972;19.850;2024-02-21T03:34:24;7.8;;;4.1;;
51194;SDS011;37259;49.972;19.850;2024-02-21T03:35:24;7.8;;;4.1;;
51194;SDS011;37259;49.972;19.850;2024-02-21T03:36:24;7.8;;;4.1;;
51194;SDS011;37259;49.972;19.850;2024-02-21T03:37:24;7.8;;;4.1;;
51194;SDS011;37259;49.972;19.850;2024-02-21T03:38:24;7.8;;;4.1;;
51194;SDS011;37259;49.972;19.850;2024-02-21T03:39:24;7.8;;;4.1;;
51194;SDS011;37259;49.972;19.850;2024-02-21T03:40:24;7.8;;;4.1;;
51194;SDS011;37259;49.972;19.850;2024-02-21T03:41:24;7.8;;;4.1;;
51194;SDS011;37259;49.972;19.850;2024-02-21T03:42:24;7.8;;;4.1;;
51194;SDS011;37259;49.972;19.850;2024-02-21T03:43:24;7.8;;;4.1;;
51194;SDS011;37259;49.972;19.850;2024-02-21T03:44:24;7.8;;;4.1;;
51194;SDS011;37259;49.972;19.850;2024-02-21T03:45:24;7.8;;;4.1;;
51194;SDS011;37259;49.972;19.850;2024-02-21T03:46:24;7.8;;;4.1;;
51194;SDS011;37259;49.972;19.850;2024-02-21T03:47:24;7.8;;;4.1;;
51194;SDS011;37259;49.972;19.850;2024-02-21T03:48:24;7.8;;;4.1;;
51194;SDS011;37259;49.972;19.850;2024-02-21T03:49:24;7.8;;;4.1;;
51194;SDS011;37259;49.972;19.850;2024-02-21T03:50:24;7.8;;;4.1;;
51194;SDS011;37259;49.972;19.850;2024-02-21T03:51:24;7.8;;;4.1;;
51194;SDS011;37259;49.972;19.850;2024-02-21T03:52:24;7.8;;;4.1;;
51194;SDS011;37259;49.972;19.850;2024-02-21T03:53:24;7.8;;;4.1;;
51194;SDS011;37259;49.972;19.850;2024-02-21T03:54:24;7.8;;;4.1;;
51194;SDS011;37259;49.972;19.850;2024-02-21T03:55:24;7.8;;;4.1;;
51194;SDS011;37259;49.972;19.850;2024-02-21T03:56:24;7.8;;;4.1;;
51194;SDS011;37259;49.972;19.850;2024-02-21T03:57:24;7.8;;;4.1;;
51194;SDS011;37259;49.972;19.850;2024-02-21T03:58:24;7.8;;;4.1;;
51194;SDS011;37259;49.972;19.850;2024-02-21T03:59:24;7.8;;;4.1;;
51194;SDS011;37259;49.972;19.850;2024-02-21T04:00:24;7.8;;;4.1;;
51194;SDS011;37259;49.972;19.850;2024-02-21T04:01:24;7.6;;;3.8;;
51194;SDS011;37259;49.972;19.850;2024-02-21T04:02:24;7.6;;;3.8;;
51194;SDS011;37259;49.972;19.850;2024-02-21T04:03:24;7.6;;;3.8;;
51194;SDS011;37259;49.972;19.850;2024-02-21T04:04:24;7.6;;;3.8;;
51194;SDS011;37259;49.972;19.850;2024-02-21T04:05:24;7.6;;;3.8;;
51194;SDS011;37259;49.972;19.850;2024-02-21T04:06:25;7.6;;;3.8;;
51194;SDS011;37259;49.972;19.850;2024-02-21T04:07:24;7.6;;;3.8;;
51194;SDS011;37259;49.972;19.850;2024-02-21T04:08:24;7.6;;;3.8;;
51194;SDS011;37259;49.972;19.850;2024-02-21T04:09:24;7.6;;;3.8;;
51194;SDS011;37259;49.972;19.850;2024-02-21T04:10:24;7.6;;;3.8;;
51194;SDS011;37259;49.972;19.850;2024-02-21T04:11:24;7.6;;;3.8;;
51194;SDS011;37259;49.972;19.850;2024-02-21T04:12:24;7.6;;;3.8;;
51194;SDS011;37259;49.972;19.850;2024-02-21T04:13:24;7.6;;;3.8;;
51194;SDS011;37259;49.972;19.850;2024-02-21T04:14:24;7.6;;;3.8;;
51194;SDS011;37259;49.972;19.850;2024-02-21T04:15:24;7.6;;;3.8;;
51194;SDS011;37259;49.972;19.850;2024-02-21T04:16:24;7.6;;;3.8;;
51194;SDS011;37259;49.972;19.850;2024-02-21T04:17:24;7.6;;;3.8;;
51194;SDS011;37259;49.972;19.850;2024-02-21T04:18:24;7.6;;;3.8;;
51194;SDS011;37259;49.972;19.850;2024-02-21T04:19:24;7.6;;;3.8;;
51194;SDS011;37259;49.972;19.850;2024-02-21T04:20:24;7.6;;;3.8;;
51194;SDS011;37259;49.972;19.850;2024-02-21T04:21:24;7.6;;;3.8;;
51194;SDS011;37259;49.972;19.850;2024-02-21T04:22:24;7.6;;;3.8;;
51194;SDS011;37259;49.972;19.850;2024-02-21T04:23:24;7.6;;;3.8;;
51194;SDS011;37259;49.972;19.850;2024-02-21T04:24:24;7.6;;;3.8;;
51194;SDS011;37259;49.972;19.850;2024-02-21T04:25:24;7.6;;;3.8;;
51194;SDS011;37259;49.972;19.850;2024-02-21T04:26:24;7.6;;;3.8;;
51194;SDS011;37259;49.972;19.850;2024-02-21T04:27:24;7.6;;;3.8;;
51194;SDS011;37259;49.972;19.850;2024-02-21T04:28:24;7.6;;;3.8;;
51194;SDS011;37259;49.972;19.850;2024-02-21T04:29:24;7.6;;;3.8;;
51194;SDS011;37259;49.972;19.850;2024-02-21T04:30:24;7.6;;;3.8;;
51194;SDS011;37259;49.972;19.850;2024-02-21T04:31:24;14;;;4.1;;
51194;SDS011;37259;49.972;19.850;2024-02-21T04:32:24;14;;;4.1;;
51194;SDS011;37259;49.972;19.850;2024-02-21T04:33:24;14;;;4.1;;
51194;SDS011;37259;49.972;19.850;2024-02-21T04:34:24;14;;;4.1;;
51194;SDS011;37259;49.972;19.850;2024-02-21T04:35:24;14;;;4.1;;
51194;SDS011;37259;49.972;19.850;2024-02-21T04:36:24;14;;;4.1;;
51194;SDS011;37259;49.972;19.850;2024-02-21T04:37:24;14;;;4.1;;
51194;SDS011;37259;49.972;19.850;2024-02-21T04:38:24;14;;;4.1;;
51194;SDS011;37259;49.972;19.850;2024-02-21T04:39:24;14;;;4.1;;
51194;SDS011;37259;49.972;19.850;2024-02-21T04:40:24;14;;;4.1;;
51194;SDS011;37259;49.972;19.850;2024-02-21T04:41:24;14;;;4.1;;
51194;SDS011;37259;49.972;19.850;2024-02-21T04:42:24;14;;;4.1;;
51194;SDS011;37259;49.972;19.850;2024-02-21T04:43:24;14;;;4.1;;
51194;SDS011;37259;49.972;19.850;2024-02-21T04:44:24;14;;;4.1;;
51194;SDS011;37259;49.972;19.850;2024-02-21T04:45:24;14;;;4.1;;
51194;SDS011;37259;49.972;19.850;2024-02-21T04:46:24;14;;;4.1;;
51194;SDS011;37259;49.972;19.850;2024-02-21T04:47:24;14;;;4.1;;
51194;SDS011;37259;49.972;19.850;2024-02-21T04:48:24;14;;;4.1;;
51194;SDS011;37259;49.972;19.850;2024-02-21T04:49:24;14;;;4.1;;
51194;SDS011;37259;49.972;19.850;2024-02-21T04:50:24;14;;;4.1;;
51194;SDS011;37259;49.972;19.850;2024-02-21T04:51:24;14;;;4.1;;
51194;SDS011;37259;49.972;19.850;2024-02-21T04:52:24;14;;;4.1;;
51194;SDS011;37259;49.972;19.850;2024-02-21T04:53:24;14;;;4.1;;
51194;SDS011;37259;49.972;19.850;2024-02-21T04:54:24;14;;;4.1;;
51194;SDS011;37259;49.972;19.850;2024-02-21T04:55:24;14;;;4.1;;
51194;SDS011;37259;49.972;19.850;2024-02-21T04:56:24;14;;;4.1;;
51194;SDS011;37259;49.972;19.850;2024-02-21T04:57:24;14;;;4.1;;
51194;SDS011;37259;49.972;19.850;2024-02-21T04:58:24;14;;;4.1;;
51194;SDS011;37259;49.972;19.850;2024-02-21T04:59:24;14;;;4.1;;
51194;SDS011;37259;49.972;19.850;2024-02-21T05:00:24;14;;;4.1;;
51194;SDS011;37259;49.972;19.850;2024-02-21T05:01:24;9.9;;;4.5;;
51194;SDS011;37259;49.972;19.850;2024-02-21T05:02:24;9.9;;;4.5;;
51194;SDS011;37259;49.972;19.850;2024-02-21T05:03:24;9.9;;;4.5;;
51194;SDS011;37259;49.972;19.850;2024-02-21T05:04:24;9.9;;;4.5;;
51194;SDS011;37259;49.972;19.850;2024-02-21T05:05:24;9.9;;;4.5;;
51194;SDS011;37259;49.972;19.850;2024-02-21T05:06:24;9.9;;;4.5;;
51194;SDS011;37259;49.972;19.850;2024-02-21T05:07:24;9.9;;;4.5;;
51194;SDS011;37259;49.972;19.850;2024-02-21T05:08:24;9.9;;;4.5;;
51194;SDS011;37259;49.972;19.850;2024-02-21T05:09:24;9.9;;;4.5;;
51194;SDS011;37259;49.972;19.850;2024-02-21T05:10:24;9.9;;;4.5;;
51194;SDS011;37259;49.972;19.850;2024-02-21T05:11:24;9.9;;;4.5;;
51194;SDS011;37259;49.972;19.850;2024-02-21T05:12:24;9.9;;;4.5;;
51194;SDS011;37259;49.972;19.850;2024-02-21T05:13:24;9.9;;;4.5;;
51194;SDS011;37259;49.972;19.850;2024-02-21T05:14:24;9.9;;;4.5;;
51194;SDS011;37259;49.972;19.850;2024-02-21T05:15:24;9.9;;;4.5;;
51194;SDS011;37259;49.972;19.850;2024-02-21T05:16:24;9.9;;;4.5;;
51194;SDS011;37259;49.972;19.850;2024-02-21T05:17:24;9.9;;;4.5;;
51194;SDS011;37259;49.972;19.850;2024-02-21T05:18:24;9.9;;;4.5;;
51194;SDS011;37259;49.972;19.850;2024-02-21T05:19:24;9.9;;;4.5;;
51194;SDS011;37259;49.972;19.850;2024-02-21T05:20:24;9.9;;;4.5;;
51194;SDS011;37259;49.972;19.850;2024-02-21T05:21:24;9.9;;;4.5;;
51194;SDS011;37259;49.972;19.850;2024-02-21T05:22:24;9.9;;;4.5;;
51194;SDS011;37259;49.972;19.850;2024-02-21T05:23:24;9.9;;;4.5;;
51194;SDS011;37259;49.972;19.850;2024-02-21T05:24:24;9.9;;;4.5;;
51194;SDS011;37259;49.972;19.850;2024-02-21T05:25:24;9.9;;;4.5;;
51194;SDS011;37259;49.972;19.850;2024-02-21T05:26:24;9.9;;;4.5;;
51194;SDS011;37259;49.972;19.850;2024-02-21T05:27:24;9.9;;;4.5;;
51194;SDS011;37259;49.972;19.850;2024-02-21T05:28:24;9.9;;;4.5;;
51194;SDS011;37259;49.972;19.850;2024-02-21T05:29:24;9.9;;;4.5;;
51194;SDS011;37259;49.972;19.850;2024-02-21T05:30:24;9.9;;;4.5;;
51194;SDS011;37259;49.972;19.850;2024-02-21T05:31:24;7.7;;;4;;
51194;SDS011;37259;49.972;19.850;2024-02-21T05:32:24;7.7;;;4;;
51194;SDS011;37259;49.972;19.850;2024-02-21T05:33:24;7.7;;;4;;
51194;SDS011;37259;49.972;19.850;2024-02-21T05:34:24;7.7;;;4;;
51194;SDS011;37259;49.972;19.850;2024-02-21T05:35:25;7.7;;;4;;
51194;SDS011;37259;49.972;19.850;2024-02-21T05:36:24;7.7;;;4;;
51194;SDS011;37259;49.972;19.850;2024-02-21T05:37:24;7.7;;;4;;
51194;SDS011;37259;49.972;19.850;2024-02-21T05:38:24;7.7;;;4;;
51194;SDS011;37259;49.972;19.850;2024-02-21T05:39:24;7.7;;;4;;
51194;SDS011;37259;49.972;19.850;2024-02-21T05:40:24;7.7;;;4;;
51194;SDS011;37259;49.972;19.850;2024-02-21T05:41:24;7.7;;;4;;
51194;SDS011;37259;49.972;19.850;2024-02-21T05:42:24;7.7;;;4;;
51194;SDS011;37259;49.972;19.850;2024-02-21T05:43:24;7.7;;;4;;
51194;SDS011;37259;49.972;19.850;2024-02-21T05:44:24;7.7;;;4;;
51194;SDS011;37259;49.972;19.850;2024-02-21T05:45:24;7.7;;;4;;
51194;SDS011;37259;49.972;19.850;2024-02-21T05:46:24;7.7;;;4;;
51194;SDS011;37259;49.972;19.850;2024-02-21T05:47:24;7.7;;;4;;
51194;SDS011;37259;49.972;19.850;2024-02-21T05:48:24;7.7;;;4;;
51194;SDS011;37259;49.972;19.850;2024-02-21T05:49:24;7.7;;;4;;
51194;SDS011;37259;49.972;19.850;2024-02-21T05:50:24;7.7;;;4;;
51194;SDS011;37259;49.972;19.850;2024-02-21T05:51:24;7.7;;;4;;
51194;SDS011;37259;49.972;19.850;2024-02-21T05:52:24;7.7;;;4;;
51194;SDS011;37259;49.972;19.850;2024-02-21T05:53:24;7.7;;;4;;
51194;SDS011;37259;49.972;19.850;2024-02-21T05:54:24;7.7;;;4;;
51194;SDS011;37259;49.972;19.850;2024-02-21T05:55:24;7.7;;;4;;
51194;SDS011;37259;49.972;19.850;2024-02-21T05:56:24;7.7;;;4;;
51194;SDS011;37259;49.972;19.850;2024-02-21T05:57:24;7.7;;;4;;
51194;SDS011;37259;49.972;19.850;2024-02-21T05:58:24;7.7;;;4;;
51194;SDS011;37259;49.972;19.850;2024-02-21T05:59:24;7.7;;;4;;
51194;SDS011;37259;49.972;19.850;2024-02-21T06:00:24;7.7;;;4;;
51194;SDS011;37259;49.972;19.850;2024-02-21T06:01:24;6.4;;;2.9;;
51194;SDS011;37259;49.972;19.850;2024-02-21T06:02:24;6.4;;;2.9;;
51194;SDS011;37259;49.972;19.850;2024-02-21T06:03:24;6.4;;;2.9;;
51194;SDS011;37259;49.972;19.850;2024-02-21T06:04:24;6.4;;;2.9;;
51194;SDS011;37259;49.972;19.850;2024-02-21T06:05:24;6.4;;;2.9;;
51194;SDS011;37259;49.972;19.850;2024-02-21T06:06:24;6.4;;;2.9;;